Time;durP1;ratioP1;P1;durP2;ratioP2;P2;SDS_P1;SDS_P2;PMS_P1;PMS_P2;Temp;Humidity;BMP_temperature;BMP_pressure;BME280_temperature;BME280_humidity;BME280_pressure;Samples;Min_cycle;Max_cycle;Signal;HPM_P1;HPM_P2
2023/10/22 00:02:21;;;;;;;9.45;2.72;;;;;;;20.15;41.96;93783.75;4966890;28;20564;-78
2023/10/22 00:04:46;;;;;;;10.15;2.33;;;;;;;20.06;41.31;93775.19;4969791;28;20034;-77
2023/10/22 00:07:14;;;;;;;13.50;2.97;;;;;;;20.03;41.40;93759.75;4966894;28;20042;-77
2023/10/22 00:09:39;;;;;;;11.02;3.45;;;;;;;19.84;41.17;93741.09;4970245;28;20038;-78
2023/10/22 00:12:05;;;;;;;11.02;3.45;;;;;;;19.87;41.37;93749.22;4968799;28;20037;-78
2023/10/22 00:14:31;;;;;;;13.93;2.80;;;;;;;19.72;41.44;93745.63;4964475;28;20105;-78
2023/10/22 00:16:56;;;;;;;10.85;2.55;;;;;;;19.66;41.71;93740.91;4969272;28;20108;-78
2023/10/22 00:19:21;;;;;;;9.55;3.03;;;;;;;19.48;42.28;93719.19;4969754;28;20039;-77
2023/10/22 00:21:49;;;;;;;11.23;2.83;;;;;;;19.33;42.33;93712.06;4968703;28;20023;-78
2023/10/22 00:24:14;;;;;;;10.02;2.90;;;;;;;19.30;41.05;93720.91;4970574;28;20050;-78
2023/10/22 00:26:40;;;;;;;6.47;2.35;;;;;;;19.22;40.94;93748.94;4969147;28;20137;-77
2023/10/22 00:29:06;;;;;;;13.85;3.97;;;;;;;18.83;41.34;93673.03;4967193;28;20035;-78
2023/10/22 00:31:31;;;;;;;11.98;3.13;;;;;;;19.21;40.12;93723.13;4966683;28;20377;-79
2023/10/22 00:33:57;;;;;;;10.30;2.33;;;;;;;19.05;39.39;93698.31;4967293;28;20109;-79
2023/10/22 00:36:26;;;;;;;7.97;3.17;;;;;;;19.27;39.58;93729.72;4967855;28;20042;-78
2023/10/22 00:38:51;;;;;;;8.88;2.60;;;;;;;19.06;40.08;93714.13;4969988;28;20026;-79
2023/10/22 00:41:17;;;;;;;11.25;3.05;;;;;;;19.01;39.74;93700.97;4958634;28;20033;-75
2023/10/22 00:43:42;;;;;;;11.88;3.03;;;;;;;19.16;39.36;93720.78;4970678;28;20035;-78
2023/10/22 00:46:20;;;;;;;14.73;3.22;;;;;;;19.13;39.33;93729.56;4971859;28;20031;-79
2023/10/22 00:48:46;;;;;;;10.85;2.90;;;;;;;19.00;39.20;93690.56;4971815;28;20054;-77
2023/10/22 00:51:13;;;;;;;11.43;2.88;;;;;;;19.13;38.85;93718.78;4974158;28;20034;-79
2023/10/22 00:53:40;;;;;;;10.27;3.38;;;;;;;19.34;38.57;93710.94;4952706;28;20058;-77
2023/10/22 00:56:05;;;;;;;13.55;2.63;;;;;;;19.30;38.42;93707.44;4973464;28;20553;-77
2023/10/22 00:58:34;;;;;;;9.48;2.72;;;;;;;19.53;38.42;93713.47;4953989;28;20035;-77
2023/10/22 01:01:03;;;;;;;9.73;3.05;;;;;;;19.62;37.90;93713.91;4950118;28;20648;-78
2023/10/22 01:03:29;;;;;;;14.63;3.13;;;;;;;19.54;37.32;93682.66;4948979;28;20822;-78
2023/10/22 01:05:54;;;;;;;15.52;3.30;;;;;;;19.44;37.01;93685.22;4951589;28;20122;-78
2023/10/22 01:08:20;;;;;;;9.13;2.33;;;;;;;19.51;36.93;93704.94;4971278;28;20042;-78
2023/10/22 01:10:45;;;;;;;10.68;2.17;;;;;;;19.52;36.41;93690.31;4967964;28;20042;-77
2023/10/22 01:13:10;;;;;;;7.95;2.10;;;;;;;19.30;36.81;93710.91;4972831;28;20148;-78
2023/10/22 01:15:37;;;;;;;10.23;2.53;;;;;;;19.40;36.61;93706.75;4971758;28;20918;-79
2023/10/22 01:18:03;;;;;;;13.80;3.60;;;;;;;19.52;36.46;93698.41;4970655;28;20362;-77
2023/10/22 01:20:28;;;;;;;9.75;2.75;;;;;;;19.41;36.34;93678.63;4969253;28;20706;-78
2023/10/22 01:22:53;;;;;;;9.48;2.28;;;;;;;19.18;36.29;93678.03;4970443;28;20026;-78
2023/10/22 01:25:19;;;;;;;11.43;3.03;;;;;;;19.21;37.49;93694.22;4970973;28;20133;-78
2023/10/22 01:27:44;;;;;;;14.07;2.85;;;;;;;19.28;36.46;93678.13;4969100;28;20772;-78
2023/10/22 01:30:10;;;;;;;13.10;2.72;;;;;;;19.01;36.30;93697.50;4970007;28;20122;-77
2023/10/22 01:32:35;;;;;;;9.98;2.60;;;;;;;18.93;36.45;93677.00;4970819;28;20082;-79
2023/10/22 01:35:01;;;;;;;14.18;3.60;;;;;;;18.97;37.28;93661.66;4969376;28;20038;-80
2023/10/22 01:37:26;;;;;;;15.00;3.20;;;;;;;19.43;36.98;93686.34;4969912;28;20031;-77
2023/10/22 01:39:52;;;;;;;9.05;2.60;;;;;;;19.43;36.66;93706.00;4957606;28;20039;-78
2023/10/22 01:42:18;;;;;;;9.00;2.42;;;;;;;19.60;37.23;93700.00;4971018;28;20385;-79
2023/10/22 01:44:44;;;;;;;7.97;2.78;;;;;;;19.45;36.82;93670.63;4970826;28;20564;-77
2023/10/22 01:47:10;;;;;;;13.27;2.75;;;;;;;19.75;37.30;93687.41;4966919;28;20042;-78
2023/10/22 01:49:36;;;;;;;19.80;3.05;;;;;;;19.72;37.41;93710.53;4966155;28;20468;-78
2023/10/22 01:52:02;;;;;;;14.57;3.08;;;;;;;19.75;38.08;93720.56;4969703;28;20042;-79
2023/10/22 01:54:27;;;;;;;15.35;3.33;;;;;;;19.75;36.76;93704.38;4970374;28;20041;-79
2023/10/22 01:56:53;;;;;;;8.13;2.55;;;;;;;19.57;37.23;93708.88;4957462;28;20085;-77
2023/10/22 01:59:19;;;;;;;12.55;2.33;;;;;;;19.80;37.30;93713.31;4968946;28;20046;-78
2023/10/22 02:01:44;;;;;;;10.05;2.95;;;;;;;19.88;38.21;93715.69;4968822;28;20655;-77
2023/10/22 02:04:09;;;;;;;8.65;3.10;;;;;;;19.94;38.64;93703.41;4971364;28;20035;-77
2023/10/22 02:06:35;;;;;;;16.23;3.58;;;;;;;19.95;38.13;93685.25;4969035;28;20058;-79
2023/10/22 02:09:00;;;;;;;12.20;2.90;;;;;;;19.98;37.90;93673.72;4968746;28;20514;-79
2023/10/22 02:11:27;;;;;;;15.57;2.75;;;;;;;20.08;36.89;93675.72;4970770;28;20045;-80
2023/10/22 02:13:53;;;;;;;8.82;2.33;;;;;;;20.27;36.44;93691.69;4967488;28;20026;-77
2023/10/22 02:16:19;;;;;;;12.68;2.90;;;;;;;20.43;37.08;93697.56;4954483;28;20055;-79
2023/10/22 02:18:45;;;;;;;11.85;2.38;;;;;;;20.39;37.27;93683.25;4966841;28;20481;-79
2023/10/22 02:21:10;;;;;;;12.65;2.47;;;;;;;20.27;37.45;93709.81;4952060;28;20031;-77
2023/10/22 02:23:36;;;;;;;13.80;2.78;;;;;;;19.96;37.21;93670.63;4971883;28;20397;-78
2023/10/22 02:26:01;;;;;;;9.52;3.00;;;;;;;19.84;37.98;93666.31;4969589;28;20096;-79
2023/10/22 02:28:26;;;;;;;11.73;2.40;;;;;;;20.00;36.46;93687.59;4969870;28;20619;-77
2023/10/22 02:30:52;;;;;;;7.93;2.13;;;;;;;19.82;36.34;93662.44;4968824;28;20031;-78
2023/10/22 02:33:17;;;;;;;11.43;3.50;;;;;;;19.82;37.12;93649.72;4971149;28;20480;-78
2023/10/22 02:35:44;;;;;;;12.10;2.85;;;;;;;20.05;37.86;93676.47;4970449;28;20022;-77
2023/10/22 02:38:15;;;;;;;10.82;2.45;;;;;;;19.95;37.97;93677.16;4970248;28;20039;-79
2023/10/22 02:40:42;;;;;;;11.27;2.53;;;;;;;19.96;38.27;93678.72;4967702;28;20497;-79
2023/10/22 02:43:07;;;;;;;18.25;3.13;;;;;;;19.79;37.26;93680.16;4971377;28;20034;-79
2023/10/22 02:45:33;;;;;;;14.68;3.10;;;;;;;19.72;37.63;93690.88;4966428;28;20856;-78
2023/10/22 02:47:59;;;;;;;16.08;3.92;;;;;;;19.52;37.63;93698.41;4970668;28;20022;-75
2023/10/22 02:50:25;;;;;;;10.63;2.45;;;;;;;19.58;37.74;93701.56;4967339;28;20098;-78
2023/10/22 02:52:51;;;;;;;12.57;3.08;;;;;;;19.33;37.64;93668.94;4966794;28;20034;-77
2023/10/22 02:55:17;;;;;;;11.95;2.78;;;;;;;19.37;38.70;93691.31;4984254;28;20440;-78
2023/10/22 02:57:42;;;;;;;16.95;2.85;;;;;;;19.41;38.81;93675.19;4971630;28;20396;-79
2023/10/22 03:00:11;;;;;;;7.68;2.38;;;;;;;19.67;38.93;93702.00;4983527;28;20504;-78
2023/10/22 03:02:37;;;;;;;13.50;3.25;;;;;;;19.63;38.88;93677.72;4968293;28;20117;-79
2023/10/22 03:05:03;;;;;;;12.18;2.50;;;;;;;19.74;38.60;93675.88;4967862;28;20034;-79
2023/10/22 03:07:29;;;;;;;12.48;3.08;;;;;;;19.84;38.75;93681.72;4970561;28;20038;-78
2023/10/22 03:09:54;;;;;;;20.98;2.75;;;;;;;19.77;38.26;93668.94;4968854;28;20638;-79
2023/10/22 03:12:20;;;;;;;11.73;3.20;;;;;;;19.69;39.00;93675.44;4970940;28;20069;-78
2023/10/22 03:14:45;;;;;;;13.95;3.47;;;;;;;19.36;39.01;93668.19;4969425;28;20019;-78
2023/10/22 03:17:12;;;;;;;14.32;4.13;;;;;;;19.29;37.77;93673.53;4968694;28;20046;-78
2023/10/22 03:19:37;;;;;;;10.55;3.00;;;;;;;19.41;37.91;93686.72;4967435;28;20035;-78
2023/10/22 03:22:04;;;;;;;7.22;2.78;;;;;;;19.40;38.99;93682.50;4984333;28;20037;-79
2023/10/22 03:24:30;;;;;;;10.65;2.83;;;;;;;19.23;39.57;93651.50;4969445;28;20548;-78
2023/10/22 03:26:56;;;;;;;11.82;2.60;;;;;;;19.35;39.45;93665.88;4966044;28;20073;-78
2023/10/22 03:29:22;;;;;;;13.85;3.33;;;;;;;19.45;38.70;93674.09;4967751;28;20331;-79
2023/10/22 03:31:47;;;;;;;13.27;3.13;;;;;;;19.62;39.45;93675.38;4968808;28;20217;-78
2023/10/22 03:34:13;;;;;;;11.65;2.78;;;;;;;19.47;39.03;93668.31;4967344;28;20039;-78
2023/10/22 03:36:39;;;;;;;11.52;2.85;;;;;;;19.49;38.68;93680.28;4968511;28;20031;-79
2023/10/22 03:39:06;;;;;;;9.63;3.13;;;;;;;19.51;39.21;93686.06;4968765;28;20030;-78
2023/10/22 03:41:32;;;;;;;11.13;2.85;;;;;;;19.46;39.44;93675.63;4969771;28;20026;-77
2023/10/22 03:43:58;;;;;;;10.52;3.03;;;;;;;19.60;39.04;93681.13;4969150;28;20604;-77
2023/10/22 03:46:24;;;;;;;10.48;2.83;;;;;;;19.59;39.63;93674.22;4968918;28;20394;-80
2023/10/22 03:48:49;;;;;;;9.15;3.10;;;;;;;19.48;39.63;93676.03;4969081;28;20053;-77
2023/10/22 03:51:15;;;;;;;16.95;3.60;;;;;;;19.56;39.73;93685.72;4969989;28;20027;-80
2023/10/22 03:53:40;;;;;;;13.05;3.20;;;;;;;19.56;39.74;93693.03;4969555;28;20034;-76
2023/10/22 03:56:07;;;;;;;16.02;3.42;;;;;;;19.46;40.29;93672.16;4969595;28;20878;-77
2023/10/22 03:58:33;;;;;;;13.05;2.85;;;;;;;19.48;40.14;93680.66;4968924;28;20378;-77
2023/10/22 04:00:58;;;;;;;10.60;2.80;;;;;;;19.38;40.57;93659.72;4969718;28;20042;-76
2023/10/22 04:03:24;;;;;;;14.98;2.42;;;;;;;19.17;40.01;93657.59;4967312;28;20031;-78
2023/10/22 04:05:55;;;;;;;9.68;2.88;;;;;;;19.36;39.93;93684.34;4970063;28;20092;-76
2023/10/22 04:08:21;;;;;;;7.65;2.65;;;;;;;19.36;39.92;93700.53;4969268;28;21044;-76
2023/10/22 04:10:47;;;;;;;17.33;2.92;;;;;;;19.36;40.42;93705.94;4969009;28;20034;-78
2023/10/22 04:13:12;;;;;;;15.43;3.17;;;;;;;19.19;40.78;93684.97;4970488;28;20037;-78
2023/10/22 04:15:38;;;;;;;10.55;2.85;;;;;;;19.04;40.50;93700.22;4970821;28;20438;-78
2023/10/22 04:18:04;;;;;;;13.27;3.60;;;;;;;18.62;40.58;93645.84;4972092;28;20366;-78
2023/10/22 04:20:33;;;;;;;12.80;2.88;;;;;;;18.98;41.50;93698.22;4974120;28;20125;-78
2023/10/22 04:22:59;;;;;;;14.77;3.80;;;;;;;19.06;40.96;93695.25;4986944;28;20101;-77
2023/10/22 04:25:26;;;;;;;9.00;3.63;;;;;;;19.10;40.68;93698.75;4972427;28;20500;-77
2023/10/22 04:27:51;;;;;;;9.18;2.50;;;;;;;19.05;40.26;93691.00;4972041;28;20026;-78
2023/10/22 04:30:17;;;;;;;12.82;3.50;;;;;;;18.84;41.02;93715.78;4972309;28;20362;-77
2023/10/22 04:32:42;;;;;;;8.93;3.00;;;;;;;18.79;41.30;93705.34;4972261;28;20109;-76
2023/10/22 04:35:08;;;;;;;16.10;3.95;;;;;;;18.87;41.48;93716.97;4968539;28;20031;-78
2023/10/22 04:37:33;;;;;;;12.55;4.05;;;;;;;18.82;41.63;93715.38;4985426;28;20038;-78
2023/10/22 04:39:58;;;;;;;17.27;4.57;;;;;;;18.96;41.73;93722.09;4973256;28;20139;-77
2023/10/22 04:42:25;;;;;;;14.70;3.97;;;;;;;19.11;41.52;93748.06;4984931;28;20041;-77
2023/10/22 04:44:50;;;;;;;18.83;2.90;;;;;;;18.98;41.83;93744.03;4974837;28;20057;-77
2023/10/22 04:47:16;;;;;;;12.75;4.07;;;;;;;19.06;42.09;93759.94;4970248;28;20030;-76
2023/10/22 04:49:44;;;;;;;12.05;3.72;;;;;;;19.00;41.76;93747.16;4976180;28;20046;-79
2023/10/22 04:52:10;;;;;;;14.20;3.53;;;;;;;19.11;42.13;93777.69;4985056;28;20349;-78
2023/10/22 04:54:36;;;;;;;10.75;3.42;;;;;;;19.17;42.38;93787.00;4970891;28;20065;-77
2023/10/22 04:57:05;;;;;;;11.75;3.70;;;;;;;18.96;42.72;93762.50;4971516;28;20042;-79
2023/10/22 04:59:30;;;;;;;11.85;3.55;;;;;;;18.87;43.26;93770.88;4971935;28;20030;-78
2023/10/22 05:01:56;;;;;;;12.68;3.05;;;;;;;18.72;42.70;93775.31;4977745;28;20038;-77
2023/10/22 05:04:21;;;;;;;20.63;5.15;;;;;;;18.87;41.98;93782.41;4976643;28;20044;-79
2023/10/22 05:06:47;;;;;;;14.95;4.10;;;;;;;18.97;42.51;93785.63;4977655;28;20064;-79
2023/10/22 05:09:12;;;;;;;17.02;3.92;;;;;;;18.84;42.98;93777.75;4979292;28;20026;-79
2023/10/22 05:11:37;;;;;;;19.33;5.57;;;;;;;18.79;42.55;93756.53;4969961;28;20031;-79
2023/10/22 05:14:03;;;;;;;12.73;4.40;;;;;;;18.66;42.74;93749.78;4975482;28;20852;-80
2023/10/22 05:16:28;;;;;;;13.05;4.55;;;;;;;18.78;42.15;93768.44;4970029;28;20550;-79
2023/10/22 05:18:54;;;;;;;22.65;5.22;;;;;;;18.83;42.78;93764.63;4985082;28;20647;-80
2023/10/22 05:21:19;;;;;;;20.30;4.85;;;;;;;18.93;42.16;93765.91;4968734;28;20235;-79
2023/10/22 05:23:45;;;;;;;18.35;4.88;;;;;;;19.02;42.17;93767.19;4968192;28;20034;-79
2023/10/22 05:26:12;;;;;;;20.25;5.05;;;;;;;19.01;42.06;93751.41;4971371;28;20070;-78
2023/10/22 05:28:38;;;;;;;10.93;4.60;;;;;;;18.98;42.91;93768.28;4971537;28;20564;-80
2023/10/22 05:31:20;;;;;;;14.10;4.10;;;;;;;18.94;42.50;93754.00;4972407;28;20034;-80
2023/10/22 05:33:46;;;;;;;14.10;3.90;;;;;;;18.98;42.84;93765.59;4971760;28;20529;-78
2023/10/22 05:36:19;;;;;;;19.40;4.20;;;;;;;18.64;42.59;93760.13;4968669;28;20030;-78
2023/10/22 05:38:45;;;;;;;13.32;3.22;;;;;;;18.64;42.51;93743.97;4984203;28;20026;-80
2023/10/22 05:41:21;;;;;;;9.35;3.65;;;;;;;18.68;43.29;93755.56;4991369;28;20050;-80
2023/10/22 05:43:48;;;;;;;14.93;4.85;;;;;;;18.59;43.00;93771.22;4979275;28;20037;-78
2023/10/22 05:46:13;;;;;;;21.98;4.20;;;;;;;18.69;43.18;93775.19;4974412;28;20039;-76
2023/10/22 05:48:39;;;;;;;15.88;5.05;;;;;;;18.18;43.26;93766.78;4968411;28;20515;-76
2023/10/22 05:51:04;;;;;;;14.30;4.72;;;;;;;18.26;43.86;93774.63;4969843;28;21039;-78
2023/10/22 05:53:32;;;;;;;16.88;4.30;;;;;;;18.02;44.28;93791.94;4970235;28;20037;-81
2023/10/22 05:55:58;;;;;;;17.20;4.55;;;;;;;18.26;43.92;93806.91;4966847;28;20066;-80
2023/10/22 05:58:45;;;;;;;14.38;4.15;;;;;;;18.17;44.02;93784.06;4960200;28;20670;-78
2023/10/22 06:01:48;;;;;;;17.13;4.65;;;;;;;18.04;45.00;93811.16;4928163;28;20050;-76
2023/10/22 06:06:53;;;;;;;16.70;3.83;;;;;;;17.70;46.03;93789.81;5056395;23;20056;-86
2023/10/22 06:09:21;;;;;;;13.27;4.32;;;;;;;17.89;46.48;93813.97;4995730;28;20715;-87
2023/10/22 06:11:49;;;;;;;12.23;4.32;;;;;;;17.44;45.70;93750.97;4996159;28;20018;-86
2023/10/22 06:14:15;;;;;;;17.50;7.18;;;;;;;17.13;45.98;93714.28;5002118;28;20167;-87
2023/10/22 06:16:41;;;;;;;17.85;5.10;;;;;;;18.12;46.33;93859.75;5017163;28;20837;-86
2023/10/22 06:19:06;;;;;;;15.88;4.38;;;;;;;16.93;46.10;93647.47;5000247;28;20029;-87
2023/10/22 06:21:35;;;;;;;11.32;4.22;;;;;;;16.93;47.88;93726.16;5002168;28;20120;-86
2023/10/22 06:24:01;;;;;;;9.55;3.55;;;;;;;17.02;47.98;93678.34;5002005;28;20053;-86
2023/10/22 06:26:40;;;;;;;18.00;4.20;;;;;;;18.02;46.94;93864.59;5030652;28;20062;-87
2023/10/22 06:29:15;;;;;;;16.23;4.10;;;;;;;16.57;47.30;93699.75;5017811;28;20141;-88
2023/10/22 06:31:40;;;;;;;12.77;5.28;;;;;;;16.79;48.38;93774.22;5027247;28;20503;-88
2023/10/22 06:34:07;;;;;;;9.63;4.00;;;;;;;16.51;48.06;93720.72;5001843;28;20049;-87
2023/10/22 06:36:33;;;;;;;13.88;4.68;;;;;;;16.19;48.34;93657.50;5002982;28;20079;-87
2023/10/22 06:39:01;;;;;;;14.82;4.07;;;;;;;17.54;48.65;93886.72;4996558;28;20041;-87
2023/10/22 06:41:30;;;;;;;12.00;4.50;;;;;;;16.28;48.94;93658.88;5035637;28;20105;-88
2023/10/22 06:43:59;;;;;;;12.45;3.80;;;;;;;17.30;48.24;93801.00;5022912;28;20161;-87
2023/10/22 06:46:28;;;;;;;11.80;4.15;;;;;;;17.14;48.97;93741.94;5017507;28;20105;-88
2023/10/22 06:48:59;;;;;;;11.57;4.63;;;;;;;17.25;49.79;93745.63;5017813;28;20041;-88
2023/10/22 06:51:29;;;;;;;16.23;4.25;;;;;;;16.74;49.45;93630.28;5017899;28;20501;-87
2023/10/22 06:54:10;;;;;;;6.72;3.60;;;;;;;18.45;49.10;93868.75;5010885;28;20708;-88
2023/10/22 06:56:36;;;;;;;11.50;3.05;;;;;;;18.63;49.32;93877.09;4984388;28;20041;-87
2023/10/22 06:59:07;;;;;;;12.57;4.13;;;;;;;18.21;48.21;93792.97;5013662;28;20405;-87
2023/10/22 07:01:35;;;;;;;14.75;4.93;;;;;;;18.85;47.96;93875.53;5018042;28;20041;-86
2023/10/22 07:04:04;;;;;;;17.17;5.50;;;;;;;17.89;48.77;93723.25;5017260;28;20070;-86
2023/10/22 07:06:32;;;;;;;12.98;5.28;;;;;;;17.22;48.34;93629.97;5016971;28;20134;-87
2023/10/22 07:09:24;;;;;;;13.80;5.28;;;;;;;17.39;47.51;93651.78;5032353;28;20136;-87
2023/10/22 07:15:12;;;;;;;13.32;5.28;;;;;;;18.83;47.72;93873.19;5064912;23;20201;-81
2023/10/22 07:17:40;;;;;;;13.90;4.90;;;;;;;19.02;48.05;93896.56;5000577;28;20034;-81
2023/10/22 07:20:07;;;;;;;15.85;4.57;;;;;;;18.71;46.88;93827.63;4989958;28;20354;-79
2023/10/22 07:22:33;;;;;;;19.25;4.38;;;;;;;19.01;47.23;93862.69;4995542;28;20099;-78
2023/10/22 07:24:58;;;;;;;19.08;5.22;;;;;;;18.91;47.10;93873.31;4999619;28;20044;-80
2023/10/22 07:27:26;;;;;;;12.88;4.57;;;;;;;18.86;47.21;93850.16;4997686;28;20045;-78
2023/10/22 07:29:51;;;;;;;16.17;4.47;;;;;;;18.67;47.32;93864.47;5019227;28;20018;-80
2023/10/22 07:32:17;;;;;;;13.98;5.43;;;;;;;18.85;47.52;93857.44;5017515;28;20037;-79
2023/10/22 07:34:43;;;;;;;18.10;5.45;;;;;;;18.83;47.45;93837.38;5003185;28;20034;-80
2023/10/22 07:37:11;;;;;;;10.77;4.60;;;;;;;19.25;46.54;93873.00;5000716;28;20038;-80
2023/10/22 07:39:37;;;;;;;19.48;5.65;;;;;;;19.29;46.12;93870.34;4989344;28;20457;-79
2023/10/22 07:42:03;;;;;;;10.77;4.97;;;;;;;19.28;45.79;93858.78;4989713;28;20890;-78
2023/10/22 07:44:29;;;;;;;12.90;5.28;;;;;;;19.28;46.66;93885.75;4985460;28;20049;-78
2023/10/22 07:46:55;;;;;;;17.75;5.35;;;;;;;19.39;46.33;93874.31;4988097;28;20543;-79
2023/10/22 07:49:20;;;;;;;13.32;5.55;;;;;;;19.46;46.76;93882.50;4993318;28;20038;-78
2023/10/22 07:51:46;;;;;;;14.15;5.60;;;;;;;19.26;46.53;93833.34;4985640;28;20751;-79
2023/10/22 07:54:12;;;;;;;18.20;5.93;;;;;;;19.49;46.24;93860.22;4973731;28;21100;-78
2023/10/22 07:56:38;;;;;;;14.48;7.22;;;;;;;19.59;45.87;93852.25;5015934;28;20018;-80
2023/10/22 07:59:10;;;;;;;18.60;6.05;;;;;;;19.80;45.72;93856.31;4992756;28;20045;-78
2023/10/22 08:01:38;;;;;;;13.88;5.78;;;;;;;19.54;45.75;93785.16;5000733;28;20096;-80
2023/10/22 08:04:04;;;;;;;11.93;5.50;;;;;;;19.88;44.92;93847.94;4990703;28;20119;-78
2023/10/22 08:06:32;;;;;;;21.75;5.97;;;;;;;19.69;45.17;93848.13;4965295;28;20730;-78
2023/10/22 08:08:57;;;;;;;21.40;6.90;;;;;;;19.80;46.05;93834.75;5003464;28;20030;-81
2023/10/22 08:11:32;;;;;;;14.57;5.60;;;;;;;20.06;43.86;93835.38;4988258;28;20041;-81
2023/10/22 08:14:04;;;;;;;17.73;5.28;;;;;;;20.09;44.14;93844.66;4983949;28;20289;-81
2023/10/22 08:16:31;;;;;;;16.50;4.85;;;;;;;20.19;42.77;93835.88;4985174;28;20042;-77
2023/10/22 08:18:56;;;;;;;8.27;4.57;;;;;;;19.89;43.47;93810.94;4979384;28;20054;-78
2023/10/22 08:21:22;;;;;;;18.17;6.15;;;;;;;19.79;43.68;93788.09;4973981;28;20120;-79
2023/10/22 08:23:48;;;;;;;17.38;5.70;;;;;;;19.77;45.41;93809.25;4985910;28;20050;-79
2023/10/22 08:26:13;;;;;;;15.27;4.88;;;;;;;20.12;43.26;93822.31;4977841;28;20564;-80
2023/10/22 08:28:38;;;;;;;11.80;4.90;;;;;;;19.95;43.75;93817.50;4989429;28;20041;-80
2023/10/22 08:31:04;;;;;;;13.48;5.25;;;;;;;19.74;43.35;93823.50;4988849;28;20045;-80
2023/10/22 08:33:34;;;;;;;21.15;5.90;;;;;;;19.83;43.12;93799.69;4959083;28;20324;-78
2023/10/22 08:36:05;;;;;;;11.35;4.65;;;;;;;20.28;43.62;93822.88;4968228;28;20103;-78
2023/10/22 08:38:31;;;;;;;19.60;4.68;;;;;;;20.27;42.84;93818.59;4984242;28;20369;-78
2023/10/22 08:40:59;;;;;;;15.30;5.45;;;;;;;20.02;43.73;93810.28;4988328;28;20129;-78
2023/10/22 08:43:31;;;;;;;15.80;6.07;;;;;;;20.16;43.44;93813.13;4993731;28;20061;-80
2023/10/22 08:45:57;;;;;;;16.02;6.28;;;;;;;20.11;43.57;93801.84;4984572;28;20069;-80
2023/10/22 08:48:25;;;;;;;15.60;4.80;;;;;;;19.96;43.56;93784.75;4984444;28;20122;-79
2023/10/22 08:50:52;;;;;;;15.57;7.25;;;;;;;20.02;43.37;93790.59;4987936;28;20041;-79
2023/10/22 08:53:18;;;;;;;27.33;5.50;;;;;;;20.04;43.16;93804.50;4984730;28;20041;-79
2023/10/22 08:55:47;;;;;;;14.82;4.65;;;;;;;20.11;42.08;93805.34;4986387;28;20037;-78
2023/10/22 08:58:18;;;;;;;12.45;4.10;;;;;;;20.41;41.25;93797.09;4989502;28;20435;-79
2023/10/22 09:00:45;;;;;;;14.57;4.32;;;;;;;20.15;40.55;93787.22;4984320;28;20038;-80
2023/10/22 09:03:14;;;;;;;13.18;4.40;;;;;;;20.44;40.86;93790.94;4985833;28;20030;-78
2023/10/22 09:05:40;;;;;;;13.60;3.58;;;;;;;20.61;39.86;93776.00;4984378;28;20137;-78
2023/10/22 09:08:06;;;;;;;13.13;3.90;;;;;;;20.73;39.90;93778.38;4983536;28;20158;-80
2023/10/22 09:10:38;;;;;;;15.50;4.15;;;;;;;20.53;40.13;93763.63;4972811;28;20034;-79
2023/10/22 09:13:06;;;;;;;8.98;4.10;;;;;;;20.77;39.24;93775.72;4982069;28;20068;-80
2023/10/22 09:15:58;;;;;;;14.10;3.97;;;;;;;20.39;38.48;93742.69;4971285;28;20137;-79
2023/10/22 09:18:25;;;;;;;9.13;3.40;;;;;;;20.74;39.31;93766.44;4969729;28;20038;-78
2023/10/22 09:20:50;;;;;;;12.18;4.03;;;;;;;20.77;38.63;93762.22;4957486;28;20580;-79
2023/10/22 09:23:22;;;;;;;6.00;2.88;;;;;;;20.48;39.10;93774.78;4978268;28;20042;-79
2023/10/22 09:26:11;;;;;;;14.82;4.07;;;;;;;20.63;39.04;93771.00;4989467;28;20038;-80
2023/10/22 09:28:39;;;;;;;8.98;3.42;;;;;;;20.67;38.37;93773.72;4986487;28;20085;-80
2023/10/22 09:31:07;;;;;;;15.68;3.50;;;;;;;20.52;38.59;93749.34;4993045;28;20579;-80
2023/10/22 09:33:42;;;;;;;12.48;3.50;;;;;;;20.76;39.14;93766.84;4996855;28;20021;-80
2023/10/22 09:36:12;;;;;;;18.17;3.90;;;;;;;20.66;38.91;93753.25;4964935;28;20388;-80
2023/10/22 09:38:49;;;;;;;15.43;3.50;;;;;;;20.88;38.57;93755.72;4939025;28;20068;-80
2023/10/22 09:41:32;;;;;;;9.95;3.63;;;;;;;20.72;39.37;93741.72;4987608;28;20023;-79
2023/10/22 09:44:00;;;;;;;10.95;3.78;;;;;;;20.86;38.47;93743.72;4979900;28;20058;-79
2023/10/22 09:46:34;;;;;;;15.80;4.97;;;;;;;20.72;37.53;93695.78;4996513;28;20261;-79
2023/10/22 09:49:01;;;;;;;12.30;3.63;;;;;;;21.06;37.17;93723.38;5008418;28;20889;-80
2023/10/22 09:51:32;;;;;;;17.23;3.72;;;;;;;21.09;36.96;93703.66;4983349;28;20042;-81
2023/10/22 09:54:14;;;;;;;19.23;4.22;;;;;;;21.31;36.87;93716.09;4970597;28;20372;-80
2023/10/22 09:56:51;;;;;;;19.48;5.45;;;;;;;21.18;36.59;93704.06;4992302;28;20538;-81
2023/10/22 09:59:20;;;;;;;21.73;4.75;;;;;;;21.18;37.07;93724.94;4983161;28;20033;-79
2023/10/22 10:01:45;;;;;;;24.13;4.93;;;;;;;21.38;35.29;93697.16;4997367;28;21028;-79
2023/10/22 10:04:13;;;;;;;27.05;5.30;;;;;;;21.39;35.80;93689.81;4990867;28;20042;-78
2023/10/22 10:06:40;;;;;;;23.23;5.13;;;;;;;21.48;36.26;93689.44;4979666;28;20049;-79
2023/10/22 10:09:06;;;;;;;15.45;3.60;;;;;;;21.27;35.20;93701.00;5000404;28;20479;-79
2023/10/22 10:11:32;;;;;;;15.02;3.95;;;;;;;21.14;36.09;93680.88;4982794;28;20556;-78
2023/10/22 10:14:11;;;;;;;17.38;4.05;;;;;;;21.16;37.00;93684.75;4988553;28;20038;-80
2023/10/22 10:16:41;;;;;;;23.02;5.20;;;;;;;21.32;36.36;93677.06;5001040;28;20581;-78
2023/10/22 10:19:08;;;;;;;20.50;4.38;;;;;;;21.51;36.37;93686.00;5000152;28;20553;-79
2023/10/22 10:21:44;;;;;;;26.10;5.15;;;;;;;21.51;36.74;93683.28;5002504;28;20939;-79
2023/10/22 10:24:33;;;;;;;25.17;6.80;;;;;;;21.67;35.76;93681.75;4990750;28;20321;-82
2023/10/22 10:26:58;;;;;;;25.67;4.07;;;;;;;21.76;34.95;93697.59;4993032;28;20043;-82
2023/10/22 10:29:30;;;;;;;25.45;5.78;;;;;;;21.60;35.37;93676.38;4985952;28;20695;-80
2023/10/22 10:32:15;;;;;;;29.30;5.28;;;;;;;21.44;35.37;93652.34;4999298;28;20112;-79
2023/10/22 10:34:43;;;;;;;27.30;5.43;;;;;;;21.76;35.70;93678.66;5000224;28;20523;-79
2023/10/22 10:37:10;;;;;;;21.42;4.47;;;;;;;21.59;35.63;93671.31;5000017;28;20552;-78
2023/10/22 10:39:37;;;;;;;19.00;4.55;;;;;;;21.72;35.88;93645.41;4985386;28;20034;-79
2023/10/22 10:42:03;;;;;;;26.60;4.72;;;;;;;21.83;35.21;93643.47;5000787;28;20055;-79
2023/10/22 10:44:29;;;;;;;26.60;4.20;;;;;;;21.73;34.80;93666.69;5002361;28;20013;-79
2023/10/22 10:46:55;;;;;;;27.95;5.13;;;;;;;21.65;36.01;93686.03;5002764;28;20068;-79
2023/10/22 10:50:07;;;;;;;32.38;4.68;;;;;;;21.91;37.04;93669.38;5003456;28;20038;-80
2023/10/22 10:52:42;;;;;;;17.83;4.13;;;;;;;21.79;35.40;93656.25;5002141;28;20038;-79
2023/10/22 10:55:19;;;;;;;24.30;4.72;;;;;;;21.92;36.72;93675.56;4995424;28;20566;-79
2023/10/22 10:57:49;;;;;;;23.92;4.78;;;;;;;22.05;37.13;93653.13;5001688;28;20140;-80
2023/10/22 11:00:24;;;;;;;22.52;4.97;;;;;;;22.11;35.06;93656.97;5002659;28;20037;-80
2023/10/22 11:02:51;;;;;;;17.48;4.40;;;;;;;22.24;35.56;93677.09;4986074;28;20045;-79
2023/10/22 11:05:29;;;;;;;25.70;8.23;;;;;;;22.18;35.07;93681.38;5001882;28;20067;-79
2023/10/22 11:07:55;;;;;;;27.95;5.13;;;;;;;22.00;35.23;93652.75;4997863;28;20038;-80
2023/10/22 11:10:21;;;;;;;30.25;5.75;;;;;;;22.16;35.80;93672.84;5006903;28;20455;-79
2023/10/22 11:12:47;;;;;;;26.80;5.35;;;;;;;21.93;35.24;93677.91;5009370;28;20072;-80
2023/10/22 11:15:13;;;;;;;27.15;5.32;;;;;;;22.15;35.77;93684.81;5009449;28;20049;-80
2023/10/22 11:17:44;;;;;;;20.20;5.32;;;;;;;22.26;35.21;93696.47;4992345;28;20029;-80
2023/10/22 11:20:10;;;;;;;16.55;4.93;;;;;;;22.11;35.56;93684.06;5010390;28;20168;-81
2023/10/22 11:22:36;;;;;;;21.90;4.30;;;;;;;22.34;36.01;93680.94;5006129;28;20043;-81
2023/10/22 11:25:05;;;;;;;24.52;5.55;;;;;;;22.25;35.41;93670.53;5010528;28;20080;-81
2023/10/22 11:27:32;;;;;;;21.67;5.72;;;;;;;22.33;35.68;93674.00;5009450;28;20064;-81
2023/10/22 11:30:00;;;;;;;15.45;5.50;;;;;;;22.52;35.79;93679.00;5009429;28;20037;-80
2023/10/22 11:32:26;;;;;;;29.45;5.03;;;;;;;22.53;35.06;93682.47;5010531;28;20950;-81
2023/10/22 11:34:54;;;;;;;16.65;4.65;;;;;;;22.60;35.37;93694.06;5005203;28;20052;-79
2023/10/22 11:37:30;;;;;;;21.88;5.60;;;;;;;22.56;37.49;93673.56;5011281;28;20045;-80